RYR2HU EIDW-LFBH
Flight info
| Callsign | RYR2HU |
|---|---|
| Flight time | 1h 25m |
| Altitude | 37000 |
| Route | PESIT DCT BAKUR DCT GUBJE DCT GISOK DCT TACQI DCT MANIG DCT BADUR DCT KORER UM616 NTS A25 LUSON |
| Aircraft | B738/M-SDE2E3FGHIRWXY/LB1 |
Departure
| Time | 2026-04-30 10:33 |
|---|---|
| Airport | Dublin Airport (EIDW) |
Arrival
| Time | 2026-04-30 11:58 |
|---|---|
| Airport | La Rochelle Île de Ré Airport (LFBH) |
| Time | Latitude | Longitude | Altitude | Speed | Heading |
|---|---|---|---|---|---|
| 2026-04-30 10:17 | 53.43009 | -6.24943 | 210 ft | 0 kts | 5° |
| 2026-04-30 10:20 | 53.42996 | -6.24945 | 214 ft | 4 kts | 5° |
| 2026-04-30 10:21 | 53.42971 | -6.24949 | 210 ft | 4 kts | 354° |
| 2026-04-30 10:21 | 53.42952 | -6.24934 | 210 ft | 4 kts | 293° |
| 2026-04-30 10:21 | 53.42947 | -6.24899 | 210 ft | 1 kts | 276° |
| 2026-04-30 10:21 | 53.42946 | -6.24892 | 210 ft | 0 kts | 276° |
| 2026-04-30 10:24 | 53.42946 | -6.24893 | 210 ft | 0 kts | 276° |
| 2026-04-30 10:24 | 53.42948 | -6.24919 | 213 ft | 5 kts | 276° |
| 2026-04-30 10:25 | 53.42954 | -6.25018 | 214 ft | 10 kts | 275° |
| 2026-04-30 10:25 | 53.42960 | -6.25137 | 210 ft | 10 kts | 275° |
| 2026-04-30 10:25 | 53.42939 | -6.25233 | 216 ft | 10 kts | 189° |
| 2026-04-30 10:25 | 53.42875 | -6.25193 | 210 ft | 10 kts | 156° |
| 2026-04-30 10:26 | 53.42815 | -6.25218 | 216 ft | 10 kts | 223° |
| 2026-04-30 10:26 | 53.42769 | -6.25297 | 215 ft | 9 kts | 225° |
| 2026-04-30 10:26 | 53.42723 | -6.25374 | 213 ft | 10 kts | 225° |
| 2026-04-30 10:26 | 53.42659 | -6.25481 | 210 ft | 18 kts | 225° |
| 2026-04-30 10:27 | 53.42564 | -6.25644 | 215 ft | 20 kts | 226° |
| 2026-04-30 10:27 | 53.42469 | -6.25805 | 213 ft | 19 kts | 225° |
| 2026-04-30 10:27 | 53.42377 | -6.25960 | 210 ft | 18 kts | 225° |
| 2026-04-30 10:27 | 53.42292 | -6.26115 | 210 ft | 18 kts | 235° |
| 2026-04-30 10:28 | 53.42266 | -6.26310 | 210 ft | 17 kts | 274° |
| 2026-04-30 10:28 | 53.42278 | -6.26506 | 214 ft | 17 kts | 276° |
| 2026-04-30 10:28 | 53.42288 | -6.26695 | 210 ft | 16 kts | 275° |
| 2026-04-30 10:28 | 53.42297 | -6.26876 | 210 ft | 15 kts | 275° |
| 2026-04-30 10:29 | 53.42307 | -6.27050 | 210 ft | 15 kts | 276° |
| 2026-04-30 10:29 | 53.42317 | -6.27217 | 210 ft | 14 kts | 276° |
| 2026-04-30 10:29 | 53.42326 | -6.27377 | 210 ft | 13 kts | 275° |
| 2026-04-30 10:29 | 53.42334 | -6.27530 | 210 ft | 13 kts | 275° |
| 2026-04-30 10:30 | 53.42342 | -6.27678 | 213 ft | 13 kts | 275° |
| 2026-04-30 10:30 | 53.42350 | -6.27822 | 218 ft | 12 kts | 275° |
| 2026-04-30 10:30 | 53.42358 | -6.27963 | 213 ft | 12 kts | 275° |
| 2026-04-30 10:30 | 53.42366 | -6.28100 | 213 ft | 12 kts | 275° |
| 2026-04-30 10:31 | 53.42373 | -6.28233 | 213 ft | 11 kts | 275° |
| 2026-04-30 10:31 | 53.42330 | -6.28326 | 210 ft | 11 kts | 191° |
| 2026-04-30 10:31 | 53.42263 | -6.28274 | 211 ft | 11 kts | 144° |
| 2026-04-30 10:31 | 53.42211 | -6.28229 | 221 ft | 7 kts | 151° |
| 2026-04-30 10:32 | 53.42195 | -6.28158 | 211 ft | 7 kts | 92° |
| 2026-04-30 10:32 | 53.42190 | -6.28036 | 218 ft | 28 kts | 95° |
| 2026-04-30 10:32 | 53.42148 | -6.27251 | 217 ft | 103 kts | 96° |
| 2026-04-30 10:32 | 53.42071 | -6.25743 | 296 ft | 152 kts | 95° |
| 2026-04-30 10:33 | 53.41981 | -6.23968 | 1129 ft | 148 kts | 95° |
| 2026-04-30 10:33 | 53.41896 | -6.22265 | 2048 ft | 147 kts | 98° |
| 2026-04-30 10:33 | 53.41803 | -6.20477 | 2757 ft | 162 kts | 102° |
| 2026-04-30 10:33 | 53.41673 | -6.18422 | 3054 ft | 192 kts | 102° |
| 2026-04-30 10:34 | 53.41525 | -6.16029 | 3289 ft | 217 kts | 102° |
| 2026-04-30 10:34 | 53.41375 | -6.13428 | 3605 ft | 228 kts | 101° |
| 2026-04-30 10:34 | 53.41229 | -6.10783 | 3859 ft | 228 kts | 101° |
| 2026-04-30 10:34 | 53.41085 | -6.08147 | 4148 ft | 226 kts | 101° |
| 2026-04-30 10:35 | 53.40940 | -6.05525 | 4839 ft | 228 kts | 101° |
| 2026-04-30 10:35 | 53.40475 | -6.03013 | 5440 ft | 225 kts | 129° |
| 2026-04-30 10:35 | 53.39314 | -6.01334 | 6097 ft | 224 kts | 153° |
| 2026-04-30 10:35 | 53.37799 | -6.00578 | 6661 ft | 238 kts | 173° |
| 2026-04-30 10:36 | 53.36078 | -6.00714 | 7215 ft | 254 kts | 181° |
| 2026-04-30 10:36 | 53.34297 | -6.00974 | 8027 ft | 258 kts | 181° |
| 2026-04-30 10:36 | 53.32497 | -6.01226 | 8777 ft | 261 kts | 180° |
| 2026-04-30 10:36 | 53.30685 | -6.01470 | 9139 ft | 263 kts | 180° |
| 2026-04-30 10:37 | 53.28855 | -6.01722 | 9167 ft | 265 kts | 182° |
| 2026-04-30 10:37 | 53.27036 | -6.02464 | 9431 ft | 274 kts | 193° |
| 2026-04-30 10:37 | 53.25218 | -6.03472 | 10287 ft | 275 kts | 192° |
| 2026-04-30 10:37 | 53.23362 | -6.04449 | 10828 ft | 290 kts | 192° |
| 2026-04-30 10:38 | 53.21345 | -6.05477 | 11026 ft | 314 kts | 192° |
| 2026-04-30 10:38 | 53.19206 | -6.06512 | 11553 ft | 323 kts | 187° |
| 2026-04-30 10:38 | 53.16986 | -6.07026 | 12349 ft | 321 kts | 180° |
| 2026-04-30 10:38 | 53.14757 | -6.07326 | 13231 ft | 322 kts | 180° |
| 2026-04-30 10:39 | 53.12520 | -6.07633 | 14064 ft | 324 kts | 179° |
| 2026-04-30 10:39 | 53.10286 | -6.07425 | 14756 ft | 321 kts | 164° |
| 2026-04-30 10:39 | 53.08119 | -6.06471 | 15462 ft | 324 kts | 162° |
| 2026-04-30 10:39 | 53.05936 | -6.05448 | 16117 ft | 328 kts | 162° |
| 2026-04-30 10:40 | 53.03731 | -6.04410 | 16828 ft | 331 kts | 162° |
| 2026-04-30 10:40 | 53.01507 | -6.03370 | 17526 ft | 334 kts | 162° |
| 2026-04-30 10:40 | 52.99257 | -6.02328 | 18198 ft | 337 kts | 162° |
| 2026-04-30 10:40 | 52.96986 | -6.01284 | 18805 ft | 340 kts | 162° |
| 2026-04-30 10:41 | 52.94723 | -6.00250 | 19372 ft | 344 kts | 162° |
| 2026-04-30 10:41 | 52.92407 | -5.99195 | 19937 ft | 347 kts | 162° |
| 2026-04-30 10:41 | 52.90066 | -5.98133 | 20488 ft | 350 kts | 163° |
| 2026-04-30 10:41 | 52.87701 | -5.97063 | 21038 ft | 354 kts | 163° |
| 2026-04-30 10:42 | 52.85315 | -5.95985 | 21584 ft | 357 kts | 163° |
| 2026-04-30 10:42 | 52.82903 | -5.94896 | 22090 ft | 361 kts | 163° |
| 2026-04-30 10:42 | 52.80465 | -5.93797 | 22595 ft | 365 kts | 163° |
| 2026-04-30 10:42 | 52.78005 | -5.92690 | 23098 ft | 369 kts | 163° |
| 2026-04-30 10:43 | 52.75530 | -5.91578 | 23122 ft | 368 kts | 163° |
| 2026-04-30 10:43 | 52.73061 | -5.90470 | 23152 ft | 369 kts | 163° |
| 2026-04-30 10:43 | 52.70583 | -5.89358 | 23143 ft | 369 kts | 163° |
| 2026-04-30 10:43 | 52.68104 | -5.88248 | 23150 ft | 369 kts | 163° |
| 2026-04-30 10:44 | 52.65625 | -5.87139 | 23150 ft | 369 kts | 163° |
| 2026-04-30 10:44 | 52.63149 | -5.86033 | 23147 ft | 369 kts | 163° |
| 2026-04-30 10:44 | 52.60670 | -5.84926 | 23149 ft | 369 kts | 163° |
| 2026-04-30 10:44 | 52.58185 | -5.83818 | 23146 ft | 370 kts | 163° |
| 2026-04-30 10:45 | 52.55705 | -5.82712 | 23150 ft | 370 kts | 163° |
| 2026-04-30 10:45 | 52.53216 | -5.81605 | 23145 ft | 370 kts | 163° |
| 2026-04-30 10:45 | 52.50729 | -5.80500 | 23131 ft | 370 kts | 163° |
| 2026-04-30 10:45 | 52.48241 | -5.79395 | 23130 ft | 371 kts | 163° |
| 2026-04-30 10:46 | 52.45750 | -5.78290 | 23134 ft | 371 kts | 163° |
| 2026-04-30 10:46 | 52.43260 | -5.77187 | 23131 ft | 371 kts | 163° |
| 2026-04-30 10:46 | 52.40770 | -5.76086 | 23126 ft | 371 kts | 163° |
| 2026-04-30 10:46 | 52.38280 | -5.74949 | 23182 ft | 374 kts | 162° |
| 2026-04-30 10:47 | 52.35772 | -5.73716 | 23617 ft | 378 kts | 161° |
| 2026-04-30 10:47 | 52.33261 | -5.72461 | 24184 ft | 377 kts | 161° |
| 2026-04-30 10:47 | 52.30751 | -5.71213 | 24639 ft | 378 kts | 162° |
| 2026-04-30 10:47 | 52.28218 | -5.69965 | 25026 ft | 382 kts | 162° |
| 2026-04-30 10:48 | 52.25656 | -5.68711 | 25400 ft | 386 kts | 162° |
| 2026-04-30 10:48 | 52.23096 | -5.67359 | 25794 ft | 388 kts | 158° |
| 2026-04-30 10:48 | 52.20584 | -5.65714 | 26194 ft | 390 kts | 156° |
| 2026-04-30 10:48 | 52.18076 | -5.63980 | 26571 ft | 393 kts | 156° |
| 2026-04-30 10:49 | 52.15549 | -5.62226 | 26937 ft | 396 kts | 156° |
| 2026-04-30 10:49 | 52.13001 | -5.60478 | 27340 ft | 398 kts | 156° |
| 2026-04-30 10:49 | 52.10440 | -5.58744 | 27759 ft | 399 kts | 156° |
| 2026-04-30 10:49 | 52.07866 | -5.57017 | 28113 ft | 402 kts | 157° |
| 2026-04-30 10:50 | 52.05269 | -5.55281 | 28440 ft | 405 kts | 157° |
| 2026-04-30 10:50 | 52.02677 | -5.53457 | 28776 ft | 407 kts | 154° |
| 2026-04-30 10:50 | 52.00111 | -5.51474 | 29120 ft | 410 kts | 153° |
| 2026-04-30 10:50 | 51.97544 | -5.49427 | 29442 ft | 412 kts | 153° |
| 2026-04-30 10:51 | 51.94969 | -5.47361 | 29753 ft | 414 kts | 153° |
| 2026-04-30 10:51 | 51.92380 | -5.45292 | 30081 ft | 416 kts | 153° |
| 2026-04-30 10:51 | 51.89783 | -5.43230 | 30489 ft | 414 kts | 153° |
| 2026-04-30 10:51 | 51.87203 | -5.41194 | 30971 ft | 411 kts | 153° |
| 2026-04-30 10:52 | 51.84643 | -5.39181 | 31415 ft | 408 kts | 153° |
| 2026-04-30 10:52 | 51.82090 | -5.37179 | 31778 ft | 408 kts | 153° |
| 2026-04-30 10:52 | 51.79539 | -5.35183 | 32125 ft | 407 kts | 153° |
| 2026-04-30 10:52 | 51.76991 | -5.33192 | 32504 ft | 406 kts | 153° |
| 2026-04-30 10:53 | 51.74454 | -5.31212 | 32910 ft | 404 kts | 153° |
| 2026-04-30 10:53 | 51.71929 | -5.29244 | 33288 ft | 403 kts | 153° |
| 2026-04-30 10:53 | 51.69409 | -5.27282 | 33641 ft | 402 kts | 153° |
| 2026-04-30 10:53 | 51.66894 | -5.25326 | 34018 ft | 400 kts | 153° |
| 2026-04-30 10:54 | 51.64393 | -5.23384 | 34379 ft | 398 kts | 153° |
| 2026-04-30 10:54 | 51.61898 | -5.21447 | 34617 ft | 399 kts | 154° |
| 2026-04-30 10:54 | 51.59391 | -5.19504 | 34781 ft | 401 kts | 154° |
| 2026-04-30 10:54 | 51.56875 | -5.17555 | 35020 ft | 401 kts | 154° |
| 2026-04-30 10:55 | 51.54360 | -5.15612 | 35294 ft | 401 kts | 154° |
| 2026-04-30 10:55 | 51.52695 | -5.14327 | 35451 ft | 401 kts | 154° |
| 2026-04-30 10:55 | 51.49492 | -5.11366 | 35703 ft | 403 kts | 144° |
| 2026-04-30 10:55 | 51.48016 | -5.09466 | 35841 ft | 404 kts | 140° |
| 2026-04-30 10:56 | 51.45244 | -5.05492 | 36164 ft | 404 kts | 140° |
| 2026-04-30 10:56 | 51.43151 | -5.02492 | 36385 ft | 404 kts | 140° |
| 2026-04-30 10:56 | 51.41734 | -5.00468 | 36503 ft | 405 kts | 140° |
| 2026-04-30 10:56 | 51.38943 | -4.96503 | 36770 ft | 405 kts | 140° |
| 2026-04-30 10:57 | 51.37515 | -4.94483 | 36915 ft | 405 kts | 140° |
| 2026-04-30 10:57 | 51.35398 | -4.91497 | 37091 ft | 406 kts | 140° |
| 2026-04-30 10:57 | 51.31125 | -4.85492 | 37084 ft | 409 kts | 140° |
| 2026-04-30 10:58 | 51.26868 | -4.79525 | 37082 ft | 405 kts | 140° |
| 2026-04-30 10:58 | 51.22674 | -4.73661 | 37076 ft | 403 kts | 140° |
| 2026-04-30 10:59 | 51.18420 | -4.67730 | 37091 ft | 411 kts | 140° |
| 2026-04-30 10:59 | 51.14085 | -4.61699 | 37087 ft | 415 kts | 140° |
| 2026-04-30 11:00 | 51.09730 | -4.55653 | 37085 ft | 416 kts | 140° |
| 2026-04-30 11:00 | 51.05356 | -4.49601 | 37081 ft | 417 kts | 141° |
| 2026-04-30 11:01 | 51.00669 | -4.44261 | 37094 ft | 414 kts | 149° |
| 2026-04-30 11:01 | 50.95777 | -4.39468 | 37079 ft | 413 kts | 149° |
| 2026-04-30 11:02 | 50.90897 | -4.34686 | 37085 ft | 412 kts | 149° |
| 2026-04-30 11:02 | 50.86043 | -4.29889 | 37087 ft | 411 kts | 149° |
| 2026-04-30 11:03 | 50.81208 | -4.25098 | 37085 ft | 409 kts | 149° |
| 2026-04-30 11:04 | 50.73990 | -4.17956 | 37086 ft | 407 kts | 149° |
| 2026-04-30 11:04 | 50.69198 | -4.13231 | 37087 ft | 405 kts | 149° |
| 2026-04-30 11:05 | 50.64418 | -4.08529 | 37095 ft | 404 kts | 149° |
| 2026-04-30 11:05 | 50.59648 | -4.03848 | 37100 ft | 404 kts | 149° |
| 2026-04-30 11:06 | 50.54883 | -3.99184 | 37099 ft | 403 kts | 149° |
| 2026-04-30 11:06 | 50.50153 | -3.94564 | 37103 ft | 403 kts | 149° |
| 2026-04-30 11:07 | 50.45385 | -3.89919 | 37110 ft | 404 kts | 149° |
| 2026-04-30 11:07 | 50.40598 | -3.85267 | 37109 ft | 405 kts | 149° |
| 2026-04-30 11:08 | 50.35797 | -3.80612 | 37123 ft | 407 kts | 149° |
| 2026-04-30 11:08 | 50.30971 | -3.75945 | 37115 ft | 408 kts | 149° |
| 2026-04-30 11:09 | 50.26128 | -3.71271 | 37111 ft | 410 kts | 149° |
| 2026-04-30 11:09 | 50.21263 | -3.66589 | 37089 ft | 411 kts | 149° |
| 2026-04-30 11:10 | 50.16379 | -3.61899 | 37101 ft | 412 kts | 149° |
| 2026-04-30 11:10 | 50.11485 | -3.57211 | 37112 ft | 414 kts | 149° |
| 2026-04-30 11:11 | 50.06570 | -3.52514 | 37100 ft | 415 kts | 149° |
| 2026-04-30 11:11 | 50.01641 | -3.47815 | 37102 ft | 416 kts | 149° |
| 2026-04-30 11:12 | 49.96702 | -3.43118 | 37101 ft | 416 kts | 149° |
| 2026-04-30 11:12 | 49.91762 | -3.38430 | 37097 ft | 416 kts | 149° |
| 2026-04-30 11:13 | 49.86817 | -3.33749 | 37095 ft | 416 kts | 149° |
| 2026-04-30 11:13 | 49.81884 | -3.29091 | 37093 ft | 415 kts | 149° |
| 2026-04-30 11:14 | 49.76670 | -3.25356 | 37092 ft | 413 kts | 164° |
| 2026-04-30 11:14 | 49.71046 | -3.23613 | 37088 ft | 412 kts | 169° |
| 2026-04-30 11:15 | 49.65405 | -3.22036 | 37088 ft | 412 kts | 169° |
| 2026-04-30 11:15 | 49.59777 | -3.20431 | 37086 ft | 411 kts | 169° |
| 2026-04-30 11:16 | 49.54193 | -3.18817 | 37084 ft | 411 kts | 169° |
| 2026-04-30 11:16 | 49.48576 | -3.17189 | 37084 ft | 411 kts | 169° |
| 2026-04-30 11:17 | 49.42954 | -3.15562 | 37084 ft | 411 kts | 169° |
| 2026-04-30 11:17 | 49.37330 | -3.13938 | 37080 ft | 412 kts | 169° |
| 2026-04-30 11:18 | 49.31694 | -3.12315 | 37079 ft | 412 kts | 169° |
| 2026-04-30 11:18 | 49.23226 | -3.09884 | 37063 ft | 413 kts | 169° |
| 2026-04-30 11:19 | 49.17565 | -3.08263 | 37076 ft | 414 kts | 169° |
| 2026-04-30 11:19 | 49.11893 | -3.06644 | 37074 ft | 415 kts | 169° |
| 2026-04-30 11:20 | 49.06198 | -3.05021 | 37068 ft | 416 kts | 169° |
| 2026-04-30 11:20 | 49.00495 | -3.03400 | 37060 ft | 418 kts | 169° |
| 2026-04-30 11:21 | 48.94773 | -3.01777 | 37064 ft | 419 kts | 169° |
| 2026-04-30 11:21 | 48.89043 | -3.00155 | 37060 ft | 419 kts | 169° |
| 2026-04-30 11:22 | 48.83301 | -2.98534 | 37055 ft | 420 kts | 169° |
| 2026-04-30 11:22 | 48.77592 | -2.96925 | 37053 ft | 420 kts | 169° |
| 2026-04-30 11:23 | 48.71849 | -2.95311 | 37057 ft | 420 kts | 169° |
| 2026-04-30 11:24 | 48.63411 | -2.91816 | 37049 ft | 419 kts | 163° |
| 2026-04-30 11:24 | 48.57836 | -2.89235 | 37044 ft | 419 kts | 163° |
| 2026-04-30 11:25 | 48.49472 | -2.85463 | 37047 ft | 418 kts | 163° |
| 2026-04-30 11:26 | 48.38312 | -2.80519 | 37042 ft | 418 kts | 163° |
| 2026-04-30 11:26 | 48.32733 | -2.78057 | 37038 ft | 418 kts | 163° |
| 2026-04-30 11:27 | 48.27149 | -2.75599 | 37034 ft | 418 kts | 163° |
| 2026-04-30 11:27 | 48.21563 | -2.73144 | 37038 ft | 418 kts | 163° |
| 2026-04-30 11:28 | 48.15961 | -2.70688 | 36756 ft | 422 kts | 163° |
| 2026-04-30 11:28 | 48.13162 | -2.69464 | 36481 ft | 416 kts | 163° |
| 2026-04-30 11:28 | 48.10397 | -2.68255 | 36096 ft | 411 kts | 163° |
| 2026-04-30 11:29 | 48.07670 | -2.67065 | 35723 ft | 407 kts | 163° |
| 2026-04-30 11:29 | 48.04969 | -2.65886 | 35333 ft | 403 kts | 163° |
| 2026-04-30 11:29 | 47.99635 | -2.63564 | 34564 ft | 396 kts | 163° |
| 2026-04-30 11:30 | 47.94389 | -2.61284 | 33774 ft | 389 kts | 162° |
| 2026-04-30 11:30 | 47.91800 | -2.60161 | 33357 ft | 386 kts | 162° |
| 2026-04-30 11:30 | 47.89236 | -2.59049 | 32990 ft | 381 kts | 162° |
| 2026-04-30 11:31 | 47.86700 | -2.57951 | 32598 ft | 378 kts | 162° |
| 2026-04-30 11:31 | 47.84191 | -2.56865 | 32246 ft | 374 kts | 162° |
| 2026-04-30 11:31 | 47.81705 | -2.55791 | 31869 ft | 371 kts | 162° |
| 2026-04-30 11:31 | 47.79239 | -2.54726 | 31523 ft | 367 kts | 162° |
| 2026-04-30 11:32 | 47.76794 | -2.53671 | 31293 ft | 368 kts | 162° |
| 2026-04-30 11:32 | 47.74285 | -2.52588 | 31068 ft | 384 kts | 162° |
| 2026-04-30 11:32 | 47.71679 | -2.51423 | 30836 ft | 398 kts | 158° |
| 2026-04-30 11:33 | 47.66920 | -2.47217 | 30340 ft | 398 kts | 139° |
| 2026-04-30 11:33 | 47.64989 | -2.44298 | 30091 ft | 395 kts | 131° |
| 2026-04-30 11:33 | 47.63200 | -2.41217 | 29808 ft | 393 kts | 131° |
| 2026-04-30 11:33 | 47.61438 | -2.38135 | 29523 ft | 391 kts | 130° |
| 2026-04-30 11:34 | 47.59687 | -2.35077 | 29154 ft | 387 kts | 131° |
| 2026-04-30 11:34 | 47.57974 | -2.32105 | 28754 ft | 382 kts | 131° |
| 2026-04-30 11:34 | 47.56250 | -2.29137 | 28288 ft | 378 kts | 131° |
| 2026-04-30 11:34 | 47.54540 | -2.26206 | 27847 ft | 375 kts | 131° |
| 2026-04-30 11:35 | 47.52838 | -2.23301 | 27403 ft | 372 kts | 131° |
| 2026-04-30 11:35 | 47.51147 | -2.20419 | 26968 ft | 369 kts | 131° |
| 2026-04-30 11:35 | 47.49469 | -2.17563 | 26552 ft | 367 kts | 131° |
| 2026-04-30 11:35 | 47.47799 | -2.14727 | 26109 ft | 365 kts | 131° |
| 2026-04-30 11:36 | 47.46138 | -2.11907 | 25687 ft | 362 kts | 131° |
| 2026-04-30 11:36 | 47.44490 | -2.09113 | 25270 ft | 360 kts | 131° |
| 2026-04-30 11:36 | 47.42845 | -2.06327 | 24853 ft | 359 kts | 131° |
| 2026-04-30 11:36 | 47.41209 | -2.03557 | 24442 ft | 357 kts | 131° |
| 2026-04-30 11:37 | 47.39582 | -2.00804 | 24027 ft | 355 kts | 131° |
| 2026-04-30 11:37 | 47.37963 | -1.98068 | 23599 ft | 354 kts | 131° |
| 2026-04-30 11:37 | 47.36344 | -1.95337 | 23120 ft | 353 kts | 131° |
| 2026-04-30 11:37 | 47.34733 | -1.92623 | 22673 ft | 351 kts | 131° |
| 2026-04-30 11:38 | 47.33139 | -1.89935 | 22248 ft | 348 kts | 131° |
| 2026-04-30 11:38 | 47.31544 | -1.87244 | 21831 ft | 346 kts | 131° |
| 2026-04-30 11:38 | 47.29967 | -1.84585 | 21423 ft | 344 kts | 131° |
| 2026-04-30 11:38 | 47.28400 | -1.81943 | 21032 ft | 341 kts | 131° |
| 2026-04-30 11:39 | 47.26841 | -1.79319 | 20627 ft | 340 kts | 131° |
| 2026-04-30 11:39 | 47.25289 | -1.76709 | 20240 ft | 338 kts | 131° |
| 2026-04-30 11:39 | 47.23747 | -1.74115 | 19841 ft | 336 kts | 131° |
| 2026-04-30 11:39 | 47.22206 | -1.71528 | 19453 ft | 335 kts | 131° |
| 2026-04-30 11:40 | 47.20676 | -1.68962 | 19066 ft | 334 kts | 131° |
| 2026-04-30 11:40 | 47.19147 | -1.66401 | 18677 ft | 333 kts | 131° |
| 2026-04-30 11:40 | 47.17603 | -1.63875 | 18259 ft | 332 kts | 136° |
| 2026-04-30 11:40 | 47.15779 | -1.61814 | 17839 ft | 330 kts | 148° |
| 2026-04-30 11:41 | 47.13728 | -1.60324 | 17428 ft | 329 kts | 160° |
| 2026-04-30 11:41 | 47.11540 | -1.59368 | 17040 ft | 327 kts | 163° |
| 2026-04-30 11:41 | 47.09345 | -1.58508 | 16655 ft | 325 kts | 164° |
| 2026-04-30 11:41 | 47.07167 | -1.57672 | 16273 ft | 323 kts | 164° |
| 2026-04-30 11:42 | 47.04996 | -1.56835 | 15898 ft | 321 kts | 164° |
| 2026-04-30 11:42 | 47.02873 | -1.56009 | 15534 ft | 319 kts | 164° |
| 2026-04-30 11:42 | 47.00734 | -1.55172 | 15175 ft | 318 kts | 164° |
| 2026-04-30 11:42 | 46.98599 | -1.54332 | 14817 ft | 319 kts | 164° |
| 2026-04-30 11:43 | 46.96450 | -1.53485 | 14421 ft | 320 kts | 164° |
| 2026-04-30 11:43 | 46.94301 | -1.52636 | 14035 ft | 320 kts | 164° |
| 2026-04-30 11:43 | 46.92159 | -1.51788 | 13655 ft | 318 kts | 164° |
| 2026-04-30 11:43 | 46.90023 | -1.50944 | 13245 ft | 318 kts | 164° |
| 2026-04-30 11:44 | 46.87885 | -1.50099 | 12828 ft | 317 kts | 164° |
| 2026-04-30 11:44 | 46.85768 | -1.49264 | 12467 ft | 314 kts | 164° |
| 2026-04-30 11:44 | 46.83661 | -1.48433 | 12083 ft | 313 kts | 164° |
| 2026-04-30 11:44 | 46.81562 | -1.47605 | 11688 ft | 312 kts | 164° |
| 2026-04-30 11:45 | 46.80181 | -1.47061 | 11456 ft | 310 kts | 165° |
| 2026-04-30 11:45 | 46.78108 | -1.46244 | 11097 ft | 307 kts | 165° |
| 2026-04-30 11:45 | 46.76051 | -1.45435 | 10729 ft | 305 kts | 165° |
| 2026-04-30 11:45 | 46.74018 | -1.44635 | 10512 ft | 298 kts | 165° |
| 2026-04-30 11:46 | 46.72048 | -1.43862 | 10367 ft | 288 kts | 165° |
| 2026-04-30 11:46 | 46.70141 | -1.43113 | 10185 ft | 278 kts | 165° |
| 2026-04-30 11:46 | 46.68317 | -1.42397 | 10048 ft | 265 kts | 165° |
| 2026-04-30 11:46 | 46.66574 | -1.41713 | 9821 ft | 257 kts | 165° |
| 2026-04-30 11:47 | 46.64863 | -1.41043 | 9559 ft | 253 kts | 165° |
| 2026-04-30 11:47 | 46.63160 | -1.40376 | 9280 ft | 254 kts | 165° |
| 2026-04-30 11:47 | 46.61457 | -1.39710 | 8996 ft | 252 kts | 165° |
| 2026-04-30 11:47 | 46.59770 | -1.39050 | 8736 ft | 250 kts | 165° |
| 2026-04-30 11:48 | 46.58099 | -1.38378 | 8459 ft | 246 kts | 165° |
| 2026-04-30 11:48 | 46.56466 | -1.37716 | 8203 ft | 242 kts | 165° |
| 2026-04-30 11:48 | 46.54847 | -1.37060 | 7975 ft | 244 kts | 165° |
| 2026-04-30 11:48 | 46.53190 | -1.36390 | 7682 ft | 250 kts | 165° |
| 2026-04-30 11:49 | 46.51503 | -1.35708 | 7424 ft | 253 kts | 165° |
| 2026-04-30 11:49 | 46.49771 | -1.35241 | 7127 ft | 254 kts | 183° |
| 2026-04-30 11:49 | 46.48056 | -1.35718 | 6890 ft | 249 kts | 192° |
| 2026-04-30 11:49 | 46.46371 | -1.36294 | 6646 ft | 249 kts | 192° |
| 2026-04-30 11:50 | 46.44680 | -1.36868 | 6416 ft | 250 kts | 192° |
| 2026-04-30 11:50 | 46.42999 | -1.37437 | 6154 ft | 245 kts | 192° |
| 2026-04-30 11:50 | 46.41356 | -1.37991 | 5894 ft | 240 kts | 192° |
| 2026-04-30 11:50 | 46.39741 | -1.38534 | 5668 ft | 237 kts | 192° |
| 2026-04-30 11:51 | 46.38130 | -1.39073 | 5426 ft | 238 kts | 191° |
| 2026-04-30 11:51 | 46.36521 | -1.39611 | 5199 ft | 236 kts | 191° |
| 2026-04-30 11:51 | 46.34937 | -1.40140 | 5037 ft | 230 kts | 191° |
| 2026-04-30 11:51 | 46.33424 | -1.40646 | 4994 ft | 216 kts | 191° |
| 2026-04-30 11:52 | 46.31995 | -1.41124 | 4849 ft | 208 kts | 191° |
| 2026-04-30 11:52 | 46.30621 | -1.41667 | 4664 ft | 204 kts | 198° |
| 2026-04-30 11:52 | 46.29298 | -1.42440 | 4440 ft | 206 kts | 200° |
| 2026-04-30 11:52 | 46.27975 | -1.43232 | 4196 ft | 206 kts | 199° |
| 2026-04-30 11:53 | 46.26647 | -1.44016 | 3932 ft | 204 kts | 199° |
| 2026-04-30 11:53 | 46.25357 | -1.44772 | 3663 ft | 196 kts | 199° |
| 2026-04-30 11:53 | 46.24116 | -1.45494 | 3398 ft | 189 kts | 199° |
| 2026-04-30 11:53 | 46.22916 | -1.46186 | 3146 ft | 182 kts | 197° |
| 2026-04-30 11:54 | 46.21721 | -1.46283 | 2880 ft | 176 kts | 160° |
| 2026-04-30 11:54 | 46.20755 | -1.45284 | 2635 ft | 171 kts | 131° |
| 2026-04-30 11:54 | 46.20081 | -1.43941 | 2518 ft | 162 kts | 127° |
| 2026-04-30 11:54 | 46.19459 | -1.42619 | 2518 ft | 158 kts | 127° |
| 2026-04-30 11:55 | 46.18843 | -1.41299 | 2552 ft | 159 kts | 126° |
| 2026-04-30 11:55 | 46.18478 | -1.39766 | 2300 ft | 168 kts | 94° |
| 2026-04-30 11:55 | 46.18457 | -1.38116 | 2120 ft | 160 kts | 95° |
| 2026-04-30 11:55 | 46.18414 | -1.36557 | 2155 ft | 154 kts | 96° |
| 2026-04-30 11:56 | 46.18370 | -1.35026 | 2149 ft | 152 kts | 96° |
| 2026-04-30 11:56 | 46.18325 | -1.33483 | 2095 ft | 156 kts | 96° |
| 2026-04-30 11:56 | 46.18280 | -1.31906 | 1810 ft | 156 kts | 96° |
| 2026-04-30 11:56 | 46.18236 | -1.30355 | 1561 ft | 154 kts | 96° |
| 2026-04-30 11:57 | 46.18192 | -1.28819 | 1346 ft | 152 kts | 95° |
| 2026-04-30 11:57 | 46.18149 | -1.27306 | 1101 ft | 149 kts | 95° |
| 2026-04-30 11:57 | 46.18106 | -1.25826 | 886 ft | 148 kts | 97° |
| 2026-04-30 11:57 | 46.18061 | -1.24332 | 669 ft | 148 kts | 96° |
| 2026-04-30 11:58 | 46.18019 | -1.22853 | 418 ft | 147 kts | 96° |
| 2026-04-30 11:58 | 46.17972 | -1.21361 | 200 ft | 150 kts | 96° |
| 2026-04-30 11:58 | 46.17930 | -1.19918 | 70 ft | 132 kts | 91° |
| 2026-04-30 11:58 | 46.17901 | -1.18951 | 73 ft | 49 kts | 92° |
| 2026-04-30 11:59 | 46.17897 | -1.18774 | 65 ft | 11 kts | 90° |
| 2026-04-30 11:59 | 46.17900 | -1.18670 | 68 ft | 10 kts | 78° |
| 2026-04-30 11:59 | 46.17889 | -1.18594 | 73 ft | 5 kts | 168° |
| 2026-04-30 11:59 | 46.17881 | -1.18614 | 74 ft | 2 kts | 270° |
| 2026-04-30 12:00 | 46.17883 | -1.18658 | 76 ft | 10 kts | 274° |
| 2026-04-30 12:00 | 46.17893 | -1.18823 | 66 ft | 20 kts | 275° |
| 2026-04-30 12:00 | 46.17903 | -1.19018 | 73 ft | 19 kts | 272° |
| 2026-04-30 12:00 | 46.17909 | -1.19207 | 72 ft | 19 kts | 272° |
| 2026-04-30 12:01 | 46.17915 | -1.19388 | 74 ft | 16 kts | 273° |
| 2026-04-30 12:01 | 46.17896 | -1.19489 | 71 ft | 9 kts | 201° |
| 2026-04-30 12:01 | 46.17836 | -1.19497 | 69 ft | 9 kts | 180° |
| 2026-04-30 12:01 | 46.17777 | -1.19497 | 72 ft | 8 kts | 180° |
| 2026-04-30 12:02 | 46.17721 | -1.19499 | 73 ft | 8 kts | 177° |
| 2026-04-30 12:02 | 46.17693 | -1.19458 | 74 ft | 5 kts | 101° |
| 2026-04-30 12:02 | 46.17691 | -1.19414 | 76 ft | 3 kts | 94° |
| 2026-04-30 12:02 | 46.17674 | -1.19397 | 71 ft | 3 kts | 176° |
| 2026-04-30 12:03 | 46.17652 | -1.19401 | 74 ft | 3 kts | 197° |
| 2026-04-30 12:03 | 46.17654 | -1.19427 | 76 ft | 0 kts | 316° |